| time (UTC) | temp C | wind direction | speed KPH | gust KPH | rain 1hr cm | rain 24hr cm | rain mn cm | humidity % | barometer mb |
| 20260906030241 | 26 | 55 | 0.0 | 0.0 | 0.00 | 0.00 | 0.00 | 82 | 1012.6 |
| 20260906025741 | 26 | 56 | 0.0 | 1.6 | 0.00 | 0.00 | 0.00 | 82 | 1012.6 |
| 20260906025235 | 26 | 53 | 0.0 | 3.2 | 0.00 | 0.00 | 0.00 | 83 | 1013.0 |
| 20260906024734 | 25 | 73 | 3.2 | 4.8 | 0.00 | 0.00 | 0.00 | 84 | 1013.1 |
| 20260906024233 | 25 | 59 | 3.2 | 4.8 | 0.00 | 0.00 | 0.00 | 86 | 1013.0 |
| 20260906023729 | 26 | 353 | 0.0 | 0.0 | 0.00 | 0.00 | 0.00 | 84 | 1012.8 |
| 20260906023225 | 26 | 352 | 0.0 | 0.0 | 0.00 | 0.00 | 0.00 | 84 | 1013.0 |
| 20260906022720 | 26 | 352 | 0.0 | 1.6 | 0.00 | 0.00 | 0.00 | 83 | 1012.9 |
| 20260906022215 | 26 | 353 | 0.0 | 0.0 | 0.00 | 0.00 | 0.00 | 82 | 1012.8 |
| 20260906021711 | 26 | 353 | 0.0 | 0.0 | 0.00 | 0.00 | 0.00 | 82 | 1012.6 |
| 20260906021210 | 26 | 352 | 0.0 | 0.0 | 0.00 | 0.00 | 0.00 | 82 | 1012.6 |
| 20260906020705 | 26 | 353 | 0.0 | 0.0 | 0.00 | 0.00 | 0.00 | 82 | 1012.4 |
| 20260906020200 | 26 | 353 | 1.6 | 1.6 | 0.00 | 0.00 | 0.00 | 82 | 1012.6 |
| 20260906015700 | 26 | 351 | 0.0 | 0.0 | 0.00 | 0.00 | 0.00 | 83 | 1012.6 |
| 20260906015158 | 25 | 352 | 0.0 | 0.0 | 0.00 | 0.00 | 0.00 | 85 | 1012.4 |
| 20260906014658 | 26 | 351 | 1.6 | 1.6 | 0.00 | 0.00 | 0.00 | 85 | 1012.6 |
| 20260906014155 | 26 | 9 | 0.0 | 0.0 | 0.00 | 0.00 | 0.00 | 82 | 1012.5 |
| 20260906013650 | 26 | 9 | 0.0 | 1.6 | 0.00 | 0.00 | 0.00 | 83 | 1012.4 |
| 20260906013145 | 26 | 10 | 1.6 | 1.6 | 0.00 | 0.00 | 0.00 | 83 | 1012.4 |
| 20260906012646 | 26 | 10 | 0.0 | 0.0 | 0.00 | 0.00 | 0.00 | 84 | 1012.2 |
| 20260906012145 | 26 | 10 | 1.6 | 3.2 | 0.00 | 0.00 | 0.00 | 85 | 1012.1 |
| 20260906011641 | 26 | 252 | 0.0 | 1.6 | 0.00 | 0.00 | 0.00 | 86 | 1012.1 |
| 20260906011136 | 26 | 243 | 0.0 | 1.6 | 0.00 | 0.00 | 0.00 | 84 | 1012.1 |
| 20260906010631 | 27 | 242 | 1.6 | 1.6 | 0.00 | 0.00 | 0.00 | 82 | 1012.1 |
| 20260906010128 | 27 | 242 | 0.0 | 0.0 | 0.00 | 0.00 | 0.00 | 81 | 1012.0 |
| 20260906005627 | 27 | 242 | 1.6 | 1.6 | 0.00 | 0.00 | 0.00 | 80 | 1012.0 |
| 20260906005127 | 28 | 330 | 1.6 | 1.6 | 0.00 | 0.00 | 0.00 | 78 | 1012.0 |
| 20260906004626 | 28 | 331 | 0.0 | 0.0 | 0.00 | 0.00 | 0.00 | 77 | 1011.6 |
| 20260906004121 | 28 | 330 | 0.0 | 0.0 | 0.00 | 0.00 | 0.00 | 77 | 1011.6 |
| 20260906003616 | 28 | 330 | 0.0 | 0.0 | 0.00 | 0.00 | 0.00 | 77 | 1011.7 |
| 20260906003113 | 28 | 330 | 0.0 | 0.0 | 0.00 | 0.00 | 0.00 | 76 | 1011.7 |
| 20260906002612 | 28 | 330 | 0.0 | 0.0 | 0.00 | 0.00 | 0.00 | 77 | 1011.7 |
| 20260906002107 | 28 | 329 | 1.6 | 1.6 | 0.00 | 0.00 | 0.00 | 74 | 1012.1 |
| 20260906001603 | 28 | 281 | 0.0 | 0.0 | 0.00 | 0.00 | 0.00 | 72 | 1012.2 |
| 20260906001102 | 29 | 279 | 0.0 | 0.0 | 0.00 | 0.00 | 0.00 | 72 | 1012.4 |
| 20260906000559 | 30 | 279 | 1.6 | 1.6 | 0.00 | 0.00 | 0.00 | 71 | 1012.4 |
| 20260906000054 | 30 | 283 | 0.0 | 1.6 | 0.00 | 0.00 | 0.00 | 69 | 1012.4 |
| 20260905235553 | 30 | 1 | 0.0 | 0.0 | 0.00 | 0.00 | 0.00 | 67 | 1012.6 |
| 20260905235048 | 30 | 1 | 0.0 | 0.0 | 0.00 | 0.00 | 0.00 | 63 | 1012.3 |
| 20260905234543 | 31 | 1 | 0.0 | 1.6 | 0.00 | 0.00 | 0.00 | 64 | 1012.8 |
| 20260905234039 | 31 | 1 | 0.0 | 0.0 | 0.00 | 0.00 | 0.00 | 59 | 1012.6 |
| 20260905233538 | 31 | 1 | 1.6 | 1.6 | 0.00 | 0.00 | 0.00 | 59 | 1012.6 |
| 20260905233038 | 31 | 0 | 1.6 | 1.6 | 0.00 | 0.00 | 0.00 | 59 | 1012.5 |
| 20260905232534 | 31 | 0 | 1.6 | 1.6 | 0.00 | 0.00 | 0.00 | 59 | 1012.6 |
| 20260905232029 | 31 | 0 | 0.0 | 0.0 | 0.00 | 0.00 | 0.00 | 60 | 1012.8 |
| 20260905231524 | 31 | 359 | 0.0 | 0.0 | 0.00 | 0.00 | 0.00 | 61 | 1012.9 |
| 20260905231021 | 31 | 359 | 0.0 | 1.6 | 0.00 | 0.00 | 0.00 | 58 | 1012.9 |
| 20260905230520 | 31 | 359 | 0.0 | 1.6 | 0.00 | 0.00 | 0.00 | 56 | 1012.6 |
| 20260905230018 | 32 | 359 | 1.6 | 1.6 | 0.00 | 0.00 | 0.00 | 55 | 1012.4 |
| 20260905225513 | 32 | 0 | 1.6 | 1.6 | 0.00 | 0.00 | 0.00 | 56 | 1012.5 |
| 20260905225009 | 32 | 358 | 1.6 | 1.6 | 0.00 | 0.00 | 0.00 | 55 | 1012.2 |
| 20260905224503 | 32 | 357 | 1.6 | 1.6 | 0.00 | 0.00 | 0.00 | 55 | 1012.3 |
| 20260905224002 | 32 | 20 | 0.0 | 1.6 | 0.00 | 0.00 | 0.00 | 55 | 1012.4 |
| 20260905223500 | 32 | 19 | 0.0 | 1.6 | 0.00 | 0.00 | 0.00 | 54 | 1012.5 |
| 20260905222955 | 33 | 15 | 1.6 | 1.6 | 0.00 | 0.00 | 0.00 | 54 | 1012.6 |
| 20260905222455 | 33 | 14 | 0.0 | 0.0 | 0.00 | 0.00 | 0.00 | 53 | 1012.5 |
| 20260905221951 | 33 | 10 | 1.6 | 4.8 | 0.00 | 0.00 | 0.00 | 52 | 1012.6 |
| 20260905221447 | 33 | 6 | 1.6 | 1.6 | 0.00 | 0.00 | 0.00 | 52 | 1012.3 |
| 20260905220943 | 33 | 6 | 3.2 | 3.2 | 0.00 | 0.00 | 0.00 | 52 | 1012.4 |
| 20260905220439 | 34 | 324 | 0.0 | 1.6 | 0.00 | 0.00 | 0.00 | 51 | 1012.5 |
| 20260905215938 | 33 | 323 | 0.0 | 1.6 | 0.00 | 0.00 | 0.00 | 51 | 1012.3 |
| 20260905215434 | 33 | 34 | 4.8 | 9.7 | 0.00 | 0.00 | 0.00 | 49 | 1012.4 |
| 20260905214930 | 34 | 346 | 4.8 | 4.8 | 0.00 | 0.00 | 0.00 | 49 | 1012.6 |
| 20260905214426 | 34 | 20 | 4.8 | 4.8 | 0.00 | 0.00 | 0.00 | 48 | 1012.5 |
| 20260905213926 | 34 | 329 | 1.6 | 1.6 | 0.00 | 0.00 | 0.00 | 48 | 1012.2 |
| 20260905213422 | 35 | 303 | 1.6 | 1.6 | 0.00 | 0.00 | 0.00 | 48 | 1012.4 |
| 20260905212917 | 35 | 333 | 1.6 | 3.2 | 0.00 | 0.00 | 0.00 | 49 | 1012.3 |
| 20260905212412 | 35 | 5 | 1.6 | 1.6 | 0.00 | 0.00 | 0.00 | 46 | 1012.3 |
| 20260905211911 | 35 | 306 | 1.6 | 1.6 | 0.00 | 0.00 | 0.00 | 46 | 1012.1 |
| 20260905211407 | 35 | 5 | 0.0 | 1.6 | 0.00 | 0.00 | 0.00 | 48 | 1012.6 |
| 20260905210903 | 35 | 342 | 1.6 | 3.2 | 0.00 | 0.00 | 0.00 | 50 | 1012.5 |
| 20260905210403 | 34 | 244 | 0.0 | 3.2 | 0.00 | 0.00 | 0.00 | 46 | 1012.3 |
| 20260905205902 | 34 | 357 | 0.0 | 4.8 | 0.00 | 0.00 | 0.00 | 49 | 1012.6 |
| 20260905205357 | 35 | 20 | 6.4 | 6.4 | 0.00 | 0.00 | 0.00 | 46 | 1012.5 |
| 20260905204855 | 35 | 356 | 3.2 | 4.8 | 0.00 | 0.00 | 0.00 | 47 | 1012.4 |
| 20260905204352 | 35 | 15 | 1.6 | 3.2 | 0.00 | 0.00 | 0.00 | 48 | 1012.4 |
| 20260905203850 | 35 | 13 | 1.6 | 4.8 | 0.00 | 0.00 | 0.00 | 49 | 1012.5 |
| 20260905203347 | 35 | 320 | 1.6 | 3.2 | 0.00 | 0.00 | 0.00 | 47 | 1012.8 |
| 20260905202843 | 35 | 263 | 12.9 | 14.5 | 0.00 | 0.00 | 0.00 | 47 | 1012.5 |
| 20260905202343 | 35 | 287 | 3.2 | 3.2 | 0.00 | 0.00 | 0.00 | 47 | 1012.6 |
| 20260905201839 | 35 | 359 | 0.0 | 3.2 | 0.00 | 0.00 | 0.00 | 46 | 1012.9 |
| 20260905201334 | 35 | 339 | 4.8 | 4.8 | 0.00 | 0.00 | 0.00 | 47 | 1013.0 |
| 20260905200833 | 35 | 354 | 3.2 | 6.4 | 0.00 | 0.00 | 0.00 | 47 | 1013.0 |
| 20260905200330 | 35 | 1 | 1.6 | 4.8 | 0.00 | 0.00 | 0.00 | 46 | 1013.1 |
| 20260905195827 | 35 | 339 | 1.6 | 3.2 | 0.00 | 0.00 | 0.00 | 44 | 1013.2 |
| 20260905195323 | 35 | 12 | 3.2 | 3.2 | 0.00 | 0.00 | 0.00 | 45 | 1013.2 |
| 20260905194819 | 35 | 107 | 1.6 | 3.2 | 0.00 | 0.00 | 0.00 | 45 | 1013.4 |
| 20260905194318 | 35 | 273 | 1.6 | 4.8 | 0.00 | 0.00 | 0.00 | 44 | 1013.2 |
| 20260905193818 | 34 | 150 | 1.6 | 3.2 | 0.00 | 0.00 | 0.00 | 45 | 1013.4 |
| 20260905193313 | 34 | 108 | 1.6 | 4.8 | 0.00 | 0.00 | 0.00 | 44 | 1013.5 |
| 20260905192808 | 34 | 288 | 4.8 | 6.4 | 0.00 | 0.00 | 0.00 | 44 | 1013.5 |
| 20260905192306 | 35 | 218 | 8.0 | 9.7 | 0.00 | 0.00 | 0.00 | 43 | 1013.7 |
| 20260905191803 | 35 | 183 | 3.2 | 6.4 | 0.00 | 0.00 | 0.00 | 44 | 1013.8 |
| 20260905191302 | 34 | 21 | 0.0 | 1.6 | 0.00 | 0.00 | 0.00 | 48 | 1013.5 |
| 20260905190801 | 35 | 235 | 6.4 | 11.3 | 0.00 | 0.00 | 0.00 | 45 | 1013.6 |
| 20260905190300 | 34 | 275 | 3.2 | 3.2 | 0.00 | 0.00 | 0.00 | 45 | 1013.8 |
| 20260905185759 | 34 | 40 | 3.2 | 4.8 | 0.00 | 0.00 | 0.00 | 46 | 1013.9 |
| 20260905185254 | 35 | 250 | 6.4 | 6.4 | 0.00 | 0.00 | 0.00 | 44 | 1013.9 |
| 20260905184748 | 34 | 278 | 3.2 | 9.7 | 0.00 | 0.00 | 0.00 | 44 | 1014.0 |
| 20260905184248 | 33 | 242 | 9.7 | 11.3 | 0.00 | 0.00 | 0.00 | 45 | 1014.1 |
| 20260905183747 | 33 | 103 | 3.2 | 3.2 | 0.00 | 0.00 | 0.00 | 45 | 1014.2 |
| 20260905183243 | 33 | 220 | 9.7 | 11.3 | 0.00 | 0.00 | 0.00 | 46 | 1014.3 |
| 20260905182742 | 33 | 143 | 1.6 | 3.2 | 0.00 | 0.00 | 0.00 | 46 | 1014.4 |
| 20260905182242 | 33 | 105 | 1.6 | 6.4 | 0.00 | 0.00 | 0.00 | 47 | 1014.3 |
| 20260905181737 | 32 | 131 | 6.4 | 6.4 | 0.00 | 0.00 | 0.00 | 48 | 1014.4 |
| 20260905181236 | 32 | 268 | 4.8 | 6.4 | 0.00 | 0.00 | 0.00 | 49 | 1014.6 |
| 20260905180731 | 32 | 136 | 6.4 | 6.4 | 0.00 | 0.00 | 0.00 | 49 | 1014.5 |
| 20260905180227 | 32 | 247 | 6.4 | 9.7 | 0.00 | 0.00 | 0.00 | 48 | 1014.6 |
| 20260905175726 | 32 | 224 | 9.7 | 11.3 | 0.00 | 0.00 | 0.00 | 49 | 1014.6 |
| 20260905175221 | 32 | 181 | 8.0 | 9.7 | 0.00 | 0.00 | 0.00 | 48 | 1014.7 |
| 20260905174716 | 32 | 218 | 1.6 | 9.7 | 0.00 | 0.00 | 0.00 | 50 | 1014.7 |
| 20260905174212 | 31 | 145 | 1.6 | 12.9 | 0.00 | 0.00 | 0.00 | 51 | 1014.7 |
| 20260905173708 | 32 | 236 | 6.4 | 11.3 | 0.00 | 0.00 | 0.00 | 51 | 1014.7 |
| 20260905173204 | 31 | 118 | 3.2 | 4.8 | 0.00 | 0.00 | 0.00 | 51 | 1014.8 |
| 20260905172703 | 31 | 210 | 3.2 | 9.7 | 0.00 | 0.00 | 0.00 | 51 | 1014.8 |
| 20260905172203 | 32 | 248 | 9.7 | 11.3 | 0.00 | 0.00 | 0.00 | 50 | 1014.8 |
| 20260905171659 | 31 | 126 | 3.2 | 6.4 | 0.00 | 0.00 | 0.00 | 50 | 1015.0 |
| 20260905171155 | 32 | 174 | 3.2 | 9.7 | 0.00 | 0.00 | 0.00 | 49 | 1014.9 |
| 20260905170652 | 31 | 113 | 6.4 | 6.4 | 0.00 | 0.00 | 0.00 | 51 | 1015.0 |
| 20260905170146 | 31 | 196 | 4.8 | 11.3 | 0.00 | 0.00 | 0.00 | 51 | 1014.8 |
| 20260905165646 | 31 | 191 | 11.3 | 11.3 | 0.00 | 0.00 | 0.00 | 51 | 1015.3 |
| 20260905165141 | 31 | 112 | 0.0 | 4.8 | 0.00 | 0.00 | 0.00 | 53 | 1015.1 |
| 20260905164636 | 31 | 100 | 6.4 | 9.7 | 0.00 | 0.00 | 0.00 | 53 | 1015.3 |
| 20260905164135 | 30 | 149 | 1.6 | 4.8 | 0.00 | 0.00 | 0.00 | 54 | 1015.4 |
| 20260905163632 | 30 | 159 | 3.2 | 6.4 | 0.00 | 0.00 | 0.00 | 57 | 1015.1 |
| 20260905163128 | 30 | 201 | 6.4 | 11.3 | 0.00 | 0.00 | 0.00 | 57 | 1015.0 |
| 20260905162624 | 30 | 205 | 4.8 | 11.3 | 0.00 | 0.00 | 0.00 | 56 | 1015.2 |
| 20260905162123 | 30 | 192 | 9.7 | 12.9 | 0.00 | 0.00 | 0.00 | 58 | 1015.2 |
| 20260905161623 | 29 | 165 | 8.0 | 14.5 | 0.00 | 0.00 | 0.00 | 59 | 1015.2 |
| 20260905161121 | 29 | 190 | 8.0 | 9.7 | 0.00 | 0.00 | 0.00 | 57 | 1015.2 |
| 20260905160620 | 29 | 233 | 3.2 | 11.3 | 0.00 | 0.00 | 0.00 | 61 | 1015.3 |
| 20260905160115 | 29 | 169 | 3.2 | 11.3 | 0.00 | 0.00 | 0.00 | 59 | 1015.4 |
| 20260905155609 | 30 | 205 | 6.4 | 12.9 | 0.00 | 0.00 | 0.00 | 59 | 1015.5 |
| 20260905155108 | 28 | 194 | 9.7 | 12.9 | 0.00 | 0.00 | 0.00 | 60 | 1015.6 |
| 20260905154608 | 29 | 144 | 4.8 | 9.7 | 0.00 | 0.00 | 0.00 | 60 | 1015.8 |
| 20260905154104 | 28 | 154 | 6.4 | 9.7 | 0.00 | 0.00 | 0.00 | 61 | 1015.7 |
| 20260905153559 | 28 | 180 | 9.7 | 11.3 | 0.00 | 0.00 | 0.00 | 60 | 1015.8 |
| 20260905153054 | 28 | 104 | 8.0 | 11.3 | 0.00 | 0.00 | 0.00 | 59 | 1015.8 |
| 20260905152549 | 28 | 77 | 3.2 | 6.4 | 0.00 | 0.00 | 0.00 | 60 | 1015.8 |
| 20260905152044 | 28 | 63 | 8.0 | 11.3 | 0.00 | 0.00 | 0.00 | 61 | 1015.9 |
| 20260905151539 | 28 | 94 | 3.2 | 11.3 | 0.00 | 0.00 | 0.00 | 61 | 1016.0 |
| 20260905151034 | 27 | 113 | 3.2 | 4.8 | 0.00 | 0.00 | 0.00 | 62 | 1015.8 |
| 20260905150529 | 27 | 42 | 6.4 | 9.7 | 0.00 | 0.00 | 0.00 | 65 | 1016.0 |
| 20260905150028 | 27 | 158 | 3.2 | 3.2 | 0.00 | 0.00 | 0.00 | 65 | 1016.0 |
| 20260905145526 | 27 | 65 | 3.2 | 9.7 | 0.00 | 0.00 | 0.00 | 63 | 1016.0 |
| 20260905145026 | 27 | 66 | 4.8 | 14.5 | 0.00 | 0.00 | 0.00 | 62 | 1016.0 |
| 20260905144521 | 28 | 134 | 9.7 | 12.9 | 0.00 | 0.00 | 0.00 | 61 | 1016.1 |
| 20260905144020 | 28 | 196 | 3.2 | 4.8 | 0.00 | 0.00 | 0.00 | 62 | 1016.1 |
| 20260905143520 | 27 | 84 | 6.4 | 12.9 | 0.00 | 0.00 | 0.00 | 62 | 1016.0 |
| 20260905143015 | 27 | 93 | 4.8 | 12.9 | 0.00 | 0.00 | 0.00 | 66 | 1016.3 |
| 20260905142514 | 27 | 102 | 6.4 | 11.3 | 0.00 | 0.00 | 0.00 | 67 | 1016.2 |
| 20260905142009 | 26 | 87 | 3.2 | 6.4 | 0.00 | 0.00 | 0.00 | 69 | 1015.9 |
| 20260905141509 | 26 | 68 | 8.0 | 11.3 | 0.00 | 0.00 | 0.00 | 70 | 1016.3 |
| 20260905141006 | 26 | 51 | 6.4 | 12.9 | 0.00 | 0.00 | 0.00 | 71 | 1016.4 |
| 20260905140500 | 25 | 50 | 11.3 | 12.9 | 0.00 | 0.00 | 0.00 | 72 | 1016.1 |
| 20260905135959 | 25 | 44 | 9.7 | 22.5 | 0.00 | 0.00 | 0.00 | 73 | 1016.3 |
| 20260905135455 | 25 | 45 | 17.7 | 20.9 | 0.00 | 0.00 | 0.00 | 73 | 1016.3 |
| 20260905134950 | 25 | 58 | 8.0 | 14.5 | 0.00 | 0.00 | 0.00 | 75 | 1016.4 |
| 20260905134449 | 24 | 307 | 4.8 | 12.9 | 0.00 | 0.00 | 0.00 | 77 | 1016.3 |
| 20260905133949 | 23 | 54 | 4.8 | 12.9 | 0.00 | 0.00 | 0.00 | 78 | 1016.3 |
| 20260905133444 | 23 | 15 | 4.8 | 9.7 | 0.00 | 0.00 | 0.00 | 79 | 1016.2 |
| 20260905132943 | 23 | 65 | 14.5 | 17.7 | 0.00 | 0.00 | 0.00 | 80 | 1016.5 |
| 20260905132439 | 22 | 50 | 6.4 | 9.7 | 0.00 | 0.00 | 0.00 | 80 | 1016.5 |
| 20260905131933 | 22 | 10 | 8.0 | 12.9 | 0.00 | 0.00 | 0.00 | 79 | 1016.5 |
| 20260905131429 | 23 | 64 | 9.7 | 12.9 | 0.00 | 0.00 | 0.00 | 78 | 1016.4 |
| 20260905130924 | 23 | 59 | 11.3 | 12.9 | 0.00 | 0.00 | 0.00 | 77 | 1016.7 |
| 20260905130423 | 23 | 42 | 9.7 | 17.7 | 0.00 | 0.00 | 0.00 | 76 | 1016.6 |
| 20260905125923 | 23 | 64 | 9.7 | 16.1 | 0.00 | 0.00 | 0.00 | 75 | 1016.4 |
| 20260905125418 | 23 | 43 | 6.4 | 22.5 | 0.00 | 0.00 | 0.00 | 76 | 1016.6 |
| 20260905124914 | 23 | 36 | 8.0 | 22.5 | 0.00 | 0.00 | 0.00 | 77 | 1016.7 |
| 20260905124410 | 23 | 7 | 6.4 | 9.7 | 0.00 | 0.00 | 0.00 | 79 | 1016.8 |
| 20260905123910 | 23 | 2 | 4.8 | 4.8 | 0.00 | 0.00 | 0.00 | 77 | 1016.2 |
| 20260905123407 | 23 | 25 | 4.8 | 6.4 | 0.00 | 0.00 | 0.00 | 77 | 1016.0 |
| 20260905122902 | 23 | 13 | 3.2 | 3.2 | 0.00 | 0.00 | 0.00 | 77 | 1015.7 |
| 20260905122401 | 23 | 344 | 6.4 | 9.7 | 0.00 | 0.00 | 0.00 | 77 | 1015.8 |
| 20260905121857 | 23 | 339 | 11.3 | 14.5 | 0.00 | 0.00 | 0.00 | 77 | 1015.8 |
| 20260905121353 | 23 | 12 | 4.8 | 11.3 | 0.00 | 0.00 | 0.00 | 77 | 1016.0 |
| 20260905120852 | 23 | 54 | 6.4 | 6.4 | 0.00 | 0.00 | 0.00 | 78 | 1015.9 |
| 20260905120346 | 23 | 40 | 8.0 | 9.7 | 0.00 | 0.00 | 0.00 | 77 | 1015.9 |
| 20260905115841 | 23 | 45 | 9.7 | 12.9 | 0.00 | 0.00 | 0.00 | 77 | 1015.7 |
| 20260905115340 | 23 | 20 | 1.6 | 4.8 | 0.00 | 0.00 | 0.00 | 79 | 1015.9 |
| 20260905114835 | 24 | 29 | 3.2 | 11.3 | 0.00 | 0.00 | 0.00 | 78 | 1015.8 |
| 20260905114334 | 24 | 354 | 1.6 | 3.2 | 0.00 | 0.00 | 0.00 | 78 | 1015.7 |
| 20260905113834 | 24 | 37 | 3.2 | 4.8 | 0.00 | 0.00 | 0.00 | 80 | 1015.7 |
| 20260905113329 | 24 | 355 | 6.4 | 11.3 | 0.00 | 0.00 | 0.00 | 80 | 1015.5 |
| 20260905112825 | 24 | 8 | 4.8 | 6.4 | 0.00 | 0.00 | 0.00 | 83 | 1015.6 |
| 20260905112319 | 24 | 352 | 6.4 | 11.3 | 0.00 | 0.00 | 0.00 | 83 | 1015.3 |
| 20260905111815 | 23 | 0 | 6.4 | 6.4 | 0.00 | 0.00 | 0.00 | 88 | 1015.5 |
| 20260905111315 | 23 | 18 | 1.6 | 4.8 | 0.00 | 0.00 | 0.00 | 92 | 1015.4 |
| 20260905110814 | 23 | 6 | 3.2 | 4.8 | 0.00 | 0.00 | 0.00 | 90 | 1015.4 |
| 20260905110308 | 23 | 54 | 1.6 | 3.2 | 0.00 | 0.00 | 0.00 | 91 | 1014.9 |
| 20260905105804 | 23 | 53 | 0.0 | 3.2 | 0.00 | 0.00 | 0.00 | 91 | 1014.6 |
| 20260905105306 | 23 | 13 | 0.0 | 0.0 | 0.00 | 0.00 | 0.00 | 91 | 1014.6 |
| 20260905104757 | 23 | 277 | 0.0 | 0.0 | 0.00 | 0.00 | 0.00 | 92 | 1014.6 |
| 20260905104254 | 23 | 275 | 0.0 | 1.6 | 0.00 | 0.00 | 0.00 | 92 | 1014.5 |
| 20260905103753 | 23 | 10 | 0.0 | 0.0 | 0.00 | 0.00 | 0.00 | 92 | 1014.6 |
| 20260905103249 | 23 | 9 | 0.0 | 0.0 | 0.00 | 0.00 | 0.00 | 92 | 1014.6 |
| 20260905102744 | 23 | 11 | 1.6 | 1.6 | 0.00 | 0.00 | 0.00 | 92 | 1014.8 |
| 20260905102241 | 23 | 11 | 0.0 | 0.0 | 0.00 | 0.00 | 0.00 | 91 | 1014.6 |
| 20260905101740 | 23 | 12 | 3.2 | 3.2 | 0.00 | 0.00 | 0.00 | 90 | 1014.6 |
| 20260905101238 | 23 | 7 | 0.0 | 0.0 | 0.00 | 0.00 | 0.00 | 91 | 1014.4 |
| 20260905100734 | 23 | 8 | 1.6 | 1.6 | 0.00 | 0.00 | 0.00 | 91 | 1014.3 |
| 20260905100230 | 23 | 7 | 0.0 | 0.0 | 0.00 | 0.00 | 0.00 | 91 | 1014.6 |
| 20260905095729 | 24 | 8 | 1.6 | 3.2 | 0.00 | 0.00 | 0.00 | 89 | 1014.4 |
| 20260905095229 | 24 | 224 | 0.0 | 0.0 | 0.00 | 0.00 | 0.00 | 88 | 1014.1 |
| 20260905094724 | 24 | 224 | 0.0 | 0.0 | 0.00 | 0.00 | 0.00 | 88 | 1014.3 |
| 20260905094219 | 24 | 224 | 1.6 | 0.0 | 0.00 | 0.00 | 0.00 | 88 | 1014.2 |
| 20260905093718 | 24 | 224 | 0.0 | 0.0 | 0.00 | 0.00 | 0.00 | 89 | 1013.9 |
| 20260905093215 | 24 | 224 | 0.0 | 0.0 | 0.00 | 0.00 | 0.00 | 88 | 1014.0 |
| 20260905092710 | 24 | 224 | 0.0 | 0.0 | 0.00 | 0.00 | 0.00 | 87 | 1014.0 |
| 20260905092205 | 25 | 224 | 0.0 | 0.0 | 0.00 | 0.00 | 0.00 | 86 | 1013.8 |
| 20260905091705 | 25 | 224 | 0.0 | 0.0 | 0.00 | 0.00 | 0.00 | 87 | 1013.8 |
| 20260905091200 | 25 | 224 | 0.0 | 1.6 | 0.00 | 0.00 | 0.00 | 86 | 1014.1 |
| 20260905090659 | 25 | 224 | 0.0 | 0.0 | 0.00 | 0.00 | 0.00 | 87 | 1013.8 |
| 20260905090155 | 25 | 224 | 0.0 | 0.0 | 0.00 | 0.00 | 0.00 | 86 | 1013.9 |
| 20260905085653 | 25 | 224 | 0.0 | 0.0 | 0.00 | 0.00 | 0.00 | 86 | 1014.0 |
| 20260905085149 | 24 | 224 | 0.0 | 0.0 | 0.00 | 0.00 | 0.00 | 87 | 1014.0 |
| 20260905084649 | 24 | 224 | 0.0 | 0.0 | 0.00 | 0.00 | 0.00 | 88 | 1014.0 |
| 20260905084143 | 24 | 224 | 0.0 | 0.0 | 0.00 | 0.00 | 0.00 | 88 | 1014.1 |
| 20260905083638 | 24 | 224 | 0.0 | 0.0 | 0.00 | 0.00 | 0.00 | 88 | 1014.0 |
| 20260905083134 | 24 | 224 | 0.0 | 1.6 | 0.00 | 0.00 | 0.00 | 88 | 1013.9 |
| 20260905082630 | 24 | 224 | 0.0 | 0.0 | 0.00 | 0.00 | 0.00 | 89 | 1014.0 |
| 20260905082126 | 24 | 224 | 3.2 | 3.2 | 0.00 | 0.00 | 0.00 | 88 | 1014.1 |
| 20260905081625 | 24 | 224 | 1.6 | 1.6 | 0.00 | 0.00 | 0.00 | 88 | 1014.1 |
| 20260905081126 | 24 | 224 | 0.0 | 0.0 | 0.00 | 0.00 | 0.00 | 88 | 1013.9 |
| 20260905080621 | 24 | 224 | 0.0 | 0.0 | 0.00 | 0.00 | 0.00 | 88 | 1014.0 |
| 20260905080115 | 24 | 224 | 0.0 | 0.0 | 0.00 | 0.00 | 0.00 | 89 | 1014.0 |
| 20260905075614 | 24 | 224 | 0.0 | 0.0 | 0.00 | 0.00 | 0.00 | 88 | 1014.0 |
| 20260905075114 | 24 | 224 | 0.0 | 0.0 | 0.00 | 0.00 | 0.00 | 88 | 1014.1 |
| 20260905074613 | 24 | 224 | 0.0 | 0.0 | 0.00 | 0.00 | 0.00 | 88 | 1014.0 |
| 20260905074109 | 24 | 224 | 0.0 | 1.6 | 0.00 | 0.00 | 0.00 | 88 | 1014.1 |
| 20260905073604 | 24 | 224 | 1.6 | 1.6 | 0.00 | 0.00 | 0.00 | 88 | 1014.2 |
| 20260905073100 | 24 | 224 | 1.6 | 3.2 | 0.00 | 0.00 | 0.00 | 88 | 1014.2 |
| 20260905072559 | 24 | 225 | 0.0 | 0.0 | 0.00 | 0.00 | 0.00 | 88 | 1014.3 |
| 20260905072055 | 24 | 225 | 0.0 | 1.6 | 0.00 | 0.00 | 0.00 | 88 | 1014.3 |
| 20260905071552 | 24 | 225 | 0.0 | 1.6 | 0.00 | 0.00 | 0.00 | 89 | 1014.4 |
| 20260905071051 | 24 | 226 | 0.0 | 0.0 | 0.00 | 0.00 | 0.00 | 89 | 1014.5 |
| 20260905070547 | 24 | 226 | 1.6 | 1.6 | 0.00 | 0.00 | 0.00 | 89 | 1014.6 |
| 20260905070043 | 24 | 225 | 3.2 | 3.2 | 0.00 | 0.00 | 0.00 | 89 | 1014.3 |
| 20260905065540 | 25 | 226 | 3.2 | 4.8 | 0.00 | 0.00 | 0.00 | 88 | 1014.4 |
| 20260905065036 | 25 | 227 | 3.2 | 3.2 | 0.00 | 0.00 | 0.00 | 87 | 1014.6 |
| 20260905064536 | 25 | 228 | 0.0 | 0.0 | 0.00 | 0.00 | 0.00 | 87 | 1014.7 |
| 20260905064031 | 25 | 228 | 0.0 | 0.0 | 0.00 | 0.00 | 0.00 | 87 | 1014.8 |
| 20260905063530 | 25 | 228 | 0.0 | 0.0 | 0.00 | 0.00 | 0.00 | 88 | 1014.7 |
| 20260905063027 | 25 | 228 | 0.0 | 1.6 | 0.00 | 0.00 | 0.00 | 88 | 1014.9 |
| 20260905062526 | 25 | 228 | 0.0 | 1.6 | 0.00 | 0.00 | 0.00 | 88 | 1014.6 |
| 20260905062027 | 25 | 229 | 1.6 | 1.6 | 0.00 | 0.00 | 0.00 | 88 | 1014.8 |
| 20260905061522 | 25 | 230 | 1.6 | 1.6 | 0.00 | 0.00 | 0.00 | 88 | 1014.9 |
| 20260905061021 | 25 | 230 | 1.6 | 1.6 | 0.00 | 0.00 | 0.00 | 88 | 1015.2 |
| 20260905060517 | 25 | 230 | 0.0 | 0.0 | 0.00 | 0.00 | 0.00 | 89 | 1014.9 |
| 20260905060013 | 25 | 230 | 0.0 | 0.0 | 0.00 | 0.00 | 0.00 | 89 | 1015.0 |
| 20260905055512 | 25 | 230 | 0.0 | 1.6 | 0.00 | 0.00 | 0.00 | 89 | 1015.0 |
| 20260905055012 | 25 | 230 | 1.6 | 1.6 | 0.00 | 0.00 | 0.00 | 88 | 1015.0 |
| 20260905054508 | 25 | 230 | 0.0 | 0.0 | 0.00 | 0.00 | 0.00 | 88 | 1015.1 |
| 20260905054003 | 25 | 230 | 0.0 | 0.0 | 0.00 | 0.00 | 0.00 | 88 | 1015.2 |
| 20260905053457 | 25 | 230 | 0.0 | 0.0 | 0.00 | 0.00 | 0.00 | 89 | 1015.0 |
| 20260905052953 | 25 | 230 | 0.0 | 0.0 | 0.00 | 0.00 | 0.00 | 88 | 1015.3 |
| 20260905052452 | 25 | 230 | 0.0 | 0.0 | 0.00 | 0.00 | 0.00 | 89 | 1015.1 |
| 20260905051952 | 25 | 230 | 0.0 | 0.0 | 0.00 | 0.00 | 0.00 | 89 | 1015.4 |
| 20260905051447 | 25 | 230 | 0.0 | 0.0 | 0.00 | 0.00 | 0.00 | 89 | 1015.4 |
| 20260905050945 | 25 | 230 | 0.0 | 1.6 | 0.00 | 0.00 | 0.00 | 88 | 1015.1 |
| 20260905050440 | 25 | 230 | 0.0 | 0.0 | 0.00 | 0.00 | 0.00 | 88 | 1015.2 |
| 20260905045936 | 25 | 230 | 0.0 | 0.0 | 0.00 | 0.00 | 0.00 | 88 | 1015.3 |
| 20260905045431 | 25 | 230 | 0.0 | 0.0 | 0.00 | 0.00 | 0.00 | 88 | 1015.2 |
| 20260905044927 | 25 | 230 | 1.6 | 1.6 | 0.00 | 0.00 | 0.00 | 88 | 1015.6 |
| 20260905044421 | 25 | 229 | 3.2 | 3.2 | 0.00 | 0.00 | 0.00 | 88 | 1015.2 |
| 20260905043921 | 25 | 217 | 4.8 | 4.8 | 0.00 | 0.00 | 0.00 | 87 | 1015.2 |
| 20260905043420 | 25 | 0 | 0.0 | 0.0 | 0.00 | 0.00 | 0.00 | 87 | 1015.4 |
| 20260905042915 | 25 | 0 | 0.0 | 0.0 | 0.00 | 0.00 | 0.00 | 88 | 1015.7 |
| 20260905042410 | 25 | 0 | 0.0 | 0.0 | 0.00 | 0.00 | 0.00 | 89 | 1015.5 |
| 20260905041905 | 25 | 0 | 0.0 | 0.0 | 0.00 | 0.00 | 0.00 | 88 | 1015.2 |
| 20260905041401 | 25 | 0 | 0.0 | 0.0 | 0.00 | 0.00 | 0.00 | 87 | 1015.1 |
| 20260905040855 | 25 | 0 | 0.0 | 0.0 | 0.00 | 0.00 | 0.00 | 87 | 1015.3 |
| 20260905040354 | 26 | 0 | 0.0 | 0.0 | 0.00 | 0.00 | 0.00 | 85 | 1015.3 |
| 20260905035854 | 26 | 0 | 0.0 | 0.0 | 0.00 | 0.00 | 0.00 | 84 | 1015.3 |
| 20260905035349 | 26 | 17 | 0.0 | 0.0 | 0.00 | 0.00 | 0.00 | 84 | 1015.4 |
| 20260905034846 | 26 | 17 | 0.0 | 1.6 | 0.00 | 0.00 | 0.00 | 84 | 1015.2 |
| 20260905034341 | 26 | 18 | 0.0 | 1.6 | 0.00 | 0.00 | 0.00 | 83 | 1015.4 |
| 20260905033840 | 26 | 18 | 0.0 | 0.0 | 0.00 | 0.00 | 0.00 | 83 | 1015.4 |
| 20260905033336 | 26 | 18 | 0.0 | 0.0 | 0.00 | 0.00 | 0.00 | 83 | 1015.4 |
| 20260905032834 | 26 | 18 | 0.0 | 0.0 | 0.00 | 0.00 | 0.00 | 83 | 1015.3 |
| 20260905032330 | 27 | 18 | 0.0 | 0.0 | 0.00 | 0.00 | 0.00 | 81 | 1015.4 |
| 20260905031825 | 27 | 18 | 0.0 | 0.0 | 0.00 | 0.00 | 0.00 | 81 | 1015.5 |
| 20260905031321 | 26 | 18 | 0.0 | 0.0 | 0.00 | 0.00 | 0.00 | 82 | 1015.6 |
| 20260905030816 | 27 | 18 | 1.6 | 1.6 | 0.00 | 0.00 | 0.00 | 81 | 1015.5 |
| 20260905030312 | 27 | 18 | 0.0 | 0.0 | 0.00 | 0.00 | 0.00 | 80 | 1015.5 |